Time;durP1;ratioP1;P1;durP2;ratioP2;P2;SDS_P1;SDS_P2;PMS_P1;PMS_P2;Temp;Humidity;BMP_temperature;BMP_pressure;BME280_temperature;BME280_humidity;BME280_pressure;Samples;Min_cycle;Max_cycle;Signal;HPM_P1;HPM_P2
2021/07/16 00:01:23;;;;;;;27.43;9.40;;;20.10;99.90;;;;;;5019176;28;20432;-85
2021/07/16 00:03:50;;;;;;;17.13;8.90;;;20.10;99.90;;;;;;5033119;28;20443;-83
2021/07/16 00:06:18;;;;;;;18.57;9.63;;;20.00;99.90;;;;;;5025566;28;20482;-84
2021/07/16 00:08:45;;;;;;;17.00;9.80;;;19.90;99.90;;;;;;5029627;28;20443;-84
2021/07/16 00:11:12;;;;;;;17.60;9.67;;;19.90;99.90;;;;;;5030779;28;20452;-83
2021/07/16 00:13:40;;;;;;;15.90;8.10;;;20.00;99.90;;;;;;5029388;28;20486;-83
2021/07/16 00:16:08;;;;;;;26.73;11.03;;;19.90;99.90;;;;;;5033019;28;20474;-84
2021/07/16 00:18:35;;;;;;;18.47;9.30;;;19.80;99.90;;;;;;5024043;28;20452;-83
2021/07/16 00:21:03;;;;;;;23.80;10.23;;;19.80;99.90;;;;;;5031107;28;20451;-83
2021/07/16 00:23:31;;;;;;;27.33;8.90;;;19.70;99.90;;;;;;5026516;28;20444;-83
2021/07/16 00:25:59;;;;;;;17.77;9.67;;;19.70;99.90;;;;;;5023387;28;20471;-85
2021/07/16 00:28:26;;;;;;;19.10;9.03;;;19.70;99.90;;;;;;5029707;28;20819;-83
2021/07/16 00:30:54;;;;;;;21.37;8.47;;;19.60;99.90;;;;;;5014586;28;20475;-83
2021/07/16 00:33:21;;;;;;;17.00;9.10;;;19.60;99.90;;;;;;5031352;28;20482;-82
2021/07/16 00:35:48;;;;;;;18.10;8.23;;;19.60;99.90;;;;;;5029495;28;20464;-83
2021/07/16 00:38:16;;;;;;;19.80;7.97;;;19.60;99.90;;;;;;5024496;28;20448;-82
2021/07/16 00:40:43;;;;;;;19.90;8.90;;;19.60;99.90;;;;;;5028080;28;20474;-85
2021/07/16 00:43:10;;;;;;;20.17;9.87;;;19.70;99.90;;;;;;5025409;28;20447;-84
2021/07/16 00:45:37;;;;;;;34.40;9.50;;;19.60;99.90;;;;;;5035002;28;20463;-84
2021/07/16 00:48:07;;;;;;;20.73;9.93;;;19.60;99.90;;;;;;5029119;28;20451;-82
2021/07/16 00:50:35;;;;;;;22.83;8.60;;;19.60;99.90;;;;;;5035489;28;20837;-84
2021/07/16 00:53:03;;;;;;;17.50;8.70;;;19.50;99.90;;;;;;5030028;28;20471;-83
2021/07/16 00:55:32;;;;;;;22.57;9.13;;;19.50;99.90;;;;;;5023570;28;20466;-83
2021/07/16 00:57:59;;;;;;;20.20;8.80;;;19.50;99.90;;;;;;5030267;28;20452;-84
2021/07/16 01:00:27;;;;;;;22.67;9.17;;;19.50;99.90;;;;;;5018118;28;20463;-84
2021/07/16 01:02:54;;;;;;;21.40;8.63;;;19.50;99.90;;;;;;5032121;28;20440;-83
2021/07/16 01:05:23;;;;;;;14.23;7.73;;;19.50;99.90;;;;;;5028113;28;20463;-85
2021/07/16 01:07:52;;;;;;;18.67;8.67;;;19.40;99.90;;;;;;5028582;28;20444;-84
2021/07/16 01:10:20;;;;;;;25.10;8.07;;;19.40;99.90;;;;;;5034623;28;20443;-84
2021/07/16 01:12:51;;;;;;;17.63;8.70;;;19.40;99.90;;;;;;5033010;28;20486;-84
2021/07/16 01:15:19;;;;;;;19.43;11.00;;;19.40;99.90;;;;;;5032688;28;20466;-84
2021/07/16 01:17:47;;;;;;;12.67;7.83;;;19.40;99.90;;;;;;5030274;28;20458;-84
2021/07/16 01:20:16;;;;;;;27.17;10.17;;;19.40;99.90;;;;;;5028537;28;20447;-85
2021/07/16 01:22:46;;;;;;;20.53;10.00;;;19.40;99.90;;;;;;5029543;28;20443;-84
2021/07/16 01:25:18;;;;;;;22.47;9.10;;;19.30;99.90;;;;;;5028983;28;20833;-85
2021/07/16 01:27:47;;;;;;;21.37;9.60;;;19.30;99.90;;;;;;5033929;28;20458;-84
2021/07/16 01:30:17;;;;;;;19.33;10.10;;;19.30;99.90;;;;;;5025423;28;20451;-86
2021/07/16 01:32:45;;;;;;;19.10;8.97;;;19.30;99.90;;;;;;5029619;28;20483;-82
2021/07/16 01:35:13;;;;;;;20.00;8.77;;;19.30;99.90;;;;;;5027780;28;20482;-84
2021/07/16 01:37:41;;;;;;;15.33;8.30;;;19.20;99.90;;;;;;5018971;28;20463;-85
2021/07/16 01:40:11;;;;;;;23.87;8.80;;;19.20;99.90;;;;;;5031681;28;20463;-85
2021/07/16 01:42:41;;;;;;;17.27;8.67;;;19.20;99.90;;;;;;5028076;28;20443;-85
2021/07/16 01:45:10;;;;;;;20.07;9.33;;;19.20;99.90;;;;;;5030719;28;20472;-84
2021/07/16 01:47:38;;;;;;;21.33;9.27;;;19.20;99.90;;;;;;5027269;28;20455;-85
2021/07/16 01:50:06;;;;;;;20.27;9.20;;;19.20;99.90;;;;;;5029487;28;20453;-85
2021/07/16 01:52:35;;;;;;;14.03;7.30;;;19.20;99.90;;;;;;5034093;28;20443;-85
2021/07/16 01:55:02;;;;;;;34.03;11.43;;;19.10;99.90;;;;;;5030414;28;20491;-85
2021/07/16 01:57:29;;;;;;;24.53;11.40;;;19.10;99.90;;;;;;5032661;28;20454;-84
2021/07/16 01:59:57;;;;;;;29.33;10.07;;;19.10;99.90;;;;;;5017453;28;20463;-84
2021/07/16 02:02:24;;;;;;;29.43;10.63;;;19.10;99.90;;;;;;5034346;28;20446;-85
2021/07/16 02:04:52;;;;;;;40.10;10.73;;;19.00;99.90;;;;;;5047918;28;20537;-85
2021/07/16 02:07:19;;;;;;;22.83;8.93;;;19.00;99.90;;;;;;5038894;28;20439;-86
2021/07/16 02:09:46;;;;;;;22.20;9.90;;;19.00;99.90;;;;;;5042878;28;20432;-85
2021/07/16 02:12:13;;;;;;;21.03;8.27;;;19.00;99.90;;;;;;5030553;28;20966;-85
2021/07/16 02:14:40;;;;;;;21.37;7.93;;;19.00;99.90;;;;;;5031444;28;20491;-85
2021/07/16 02:17:09;;;;;;;25.60;9.50;;;18.90;99.90;;;;;;5030969;28;20454;-84
2021/07/16 02:19:36;;;;;;;21.57;8.87;;;18.90;99.90;;;;;;5018388;28;20463;-85
2021/07/16 02:22:06;;;;;;;13.80;7.50;;;19.00;99.90;;;;;;5022201;28;20463;-85
2021/07/16 02:24:34;;;;;;;15.40;8.23;;;19.00;99.90;;;;;;5031105;28;20478;-85
2021/07/16 02:27:03;;;;;;;21.73;9.00;;;19.00;99.90;;;;;;5033990;28;20436;-84
2021/07/16 02:29:30;;;;;;;18.77;9.80;;;19.00;99.90;;;;;;5038624;28;21212;-84
2021/07/16 02:31:57;;;;;;;17.67;7.53;;;19.00;99.90;;;;;;5037850;28;20466;-85
2021/07/16 02:34:30;;;;;;;21.10;9.20;;;19.00;99.90;;;;;;5035899;28;20487;-86
2021/07/16 02:36:57;;;;;;;13.93;7.67;;;19.00;99.90;;;;;;5031756;28;20451;-85
2021/07/16 02:39:24;;;;;;;17.97;8.63;;;19.00;99.90;;;;;;5039951;28;20465;-84
2021/07/16 02:41:51;;;;;;;22.83;9.30;;;18.90;99.90;;;;;;5036658;28;20451;-85
2021/07/16 02:44:18;;;;;;;19.33;10.47;;;18.90;99.90;;;;;;5031195;28;21172;-84
2021/07/16 02:46:45;;;;;;;16.20;9.00;;;18.90;99.90;;;;;;5018603;28;21032;-85
2021/07/16 02:49:12;;;;;;;17.00;7.50;;;18.90;99.90;;;;;;5032590;28;20459;-84
2021/07/16 02:51:41;;;;;;;20.70;8.37;;;18.90;99.90;;;;;;5029098;28;20448;-83
2021/07/16 02:54:08;;;;;;;24.80;9.60;;;18.90;99.90;;;;;;5028398;28;20483;-84
2021/07/16 02:56:35;;;;;;;20.37;8.23;;;18.90;99.90;;;;;;5032300;28;20457;-84
2021/07/16 02:59:02;;;;;;;30.63;9.10;;;18.90;99.90;;;;;;5031425;28;20445;-84
2021/07/16 03:01:29;;;;;;;18.67;8.40;;;18.90;99.90;;;;;;5035667;28;20903;-84
2021/07/16 03:03:56;;;;;;;17.40;7.67;;;19.00;99.90;;;;;;5033742;28;20449;-84
2021/07/16 03:06:23;;;;;;;24.37;9.30;;;19.00;99.90;;;;;;5026790;28;20520;-84
2021/07/16 03:08:52;;;;;;;19.93;8.03;;;19.00;99.90;;;;;;5021141;28;20463;-83
2021/07/16 03:11:19;;;;;;;23.70;7.90;;;19.00;99.90;;;;;;5029446;28;20434;-84
2021/07/16 03:13:46;;;;;;;15.97;8.63;;;18.90;99.90;;;;;;5024420;28;20490;-84
2021/07/16 03:16:13;;;;;;;23.73;9.23;;;18.90;99.90;;;;;;5035313;28;20486;-85
2021/07/16 03:18:41;;;;;;;21.77;6.97;;;18.80;99.90;;;;;;5032276;28;20444;-85
2021/07/16 03:21:09;;;;;;;16.33;8.10;;;18.80;99.90;;;;;;5028697;28;20455;-84
2021/07/16 03:23:36;;;;;;;24.60;8.90;;;18.90;99.90;;;;;;5034708;28;20459;-85
2021/07/16 03:26:04;;;;;;;25.57;7.80;;;18.80;99.90;;;;;;5029150;28;20968;-84
2021/07/16 03:28:31;;;;;;;20.40;9.07;;;18.80;99.90;;;;;;5036171;28;20454;-84
2021/07/16 03:31:00;;;;;;;17.43;8.00;;;18.80;99.90;;;;;;5008189;28;20459;-84
2021/07/16 03:33:27;;;;;;;19.87;9.60;;;18.90;99.90;;;;;;5040162;28;20899;-85
2021/07/16 03:35:54;;;;;;;17.00;7.97;;;18.90;99.90;;;;;;5025958;28;20471;-84
2021/07/16 03:38:21;;;;;;;22.43;8.83;;;18.90;99.90;;;;;;5030753;28;20436;-85
2021/07/16 03:40:54;;;;;;;23.50;7.40;;;18.90;99.90;;;;;;5032929;28;20506;-84
2021/07/16 03:43:22;;;;;;;19.40;8.60;;;18.90;99.90;;;;;;5026057;28;20850;-84
2021/07/16 03:45:51;;;;;;;20.03;8.40;;;19.00;99.90;;;;;;5032885;28;20773;-84
2021/07/16 03:48:18;;;;;;;19.33;8.57;;;19.00;99.90;;;;;;5032371;28;20447;-85
2021/07/16 03:50:47;;;;;;;20.63;8.50;;;19.00;99.90;;;;;;5037025;28;20531;-84
2021/07/16 03:53:15;;;;;;;18.80;7.67;;;19.00;99.90;;;;;;5031463;28;20522;-85
2021/07/16 03:55:42;;;;;;;21.67;8.83;;;19.00;99.90;;;;;;5031103;28;20506;-85
2021/07/16 03:58:09;;;;;;;28.67;9.43;;;19.10;99.90;;;;;;5022531;28;20466;-85
2021/07/16 04:00:38;;;;;;;20.57;10.30;;;19.10;99.90;;;;;;5032012;28;20463;-84
2021/07/16 04:03:06;;;;;;;17.30;9.67;;;19.10;99.90;;;;;;5038623;28;20461;-85
2021/07/16 04:05:34;;;;;;;18.70;8.53;;;19.10;99.90;;;;;;5030985;28;20486;-85
2021/07/16 04:08:04;;;;;;;30.00;9.40;;;19.20;99.90;;;;;;5028072;28;20444;-85
2021/07/16 04:10:32;;;;;;;22.63;9.97;;;19.20;99.90;;;;;;5024566;28;20455;-85
2021/07/16 04:13:04;;;;;;;24.57;9.70;;;19.20;99.90;;;;;;5042634;28;20434;-87
2021/07/16 04:15:31;;;;;;;24.47;7.90;;;19.00;99.90;;;;;;5038332;28;20749;-84
2021/07/16 04:18:01;;;;;;;18.80;8.77;;;19.30;99.90;;;;;;5029503;28;20448;-85
2021/07/16 04:20:30;;;;;;;24.67;9.03;;;19.30;99.90;;;;;;5035274;28;20473;-85
2021/07/16 04:22:58;;;;;;;22.33;9.90;;;19.30;99.90;;;;;;5036027;28;20523;-86
2021/07/16 04:25:25;;;;;;;23.97;7.90;;;19.30;99.90;;;;;;5043549;28;20462;-84
2021/07/16 04:27:54;;;;;;;17.80;8.60;;;19.40;99.90;;;;;;5018490;28;20437;-84
2021/07/16 04:30:23;;;;;;;30.57;8.90;;;19.50;99.90;;;;;;5029472;28;20465;-84
2021/07/16 04:36:12;;;;;;;23.87;9.57;;;19.70;99.90;;;;;;5024277;28;20463;-84
2021/07/16 04:42:17;;;;;;;31.50;9.13;;;19.90;99.90;;;;;;5029518;28;20434;-85
2021/07/16 04:45:13;;;;;;;18.10;7.80;;;19.90;99.90;;;;;;5031078;28;20476;-85
2021/07/16 04:47:47;;;;;;;22.23;10.10;;;20.00;99.90;;;;;;5034546;28;20447;-85
2021/07/16 04:50:16;;;;;;;19.90;9.00;;;19.90;99.90;;;;;;5035110;28;20506;-85
2021/07/16 04:52:46;;;;;;;22.63;9.40;;;19.90;99.90;;;;;;5028205;28;20441;-86
2021/07/16 04:55:14;;;;;;;23.07;8.80;;;19.90;99.90;;;;;;5028615;28;20533;-84
2021/07/16 04:57:42;;;;;;;27.57;9.93;;;19.90;99.90;;;;;;5029050;28;20455;-85
2021/07/16 05:00:11;;;;;;;21.63;9.50;;;19.90;99.90;;;;;;5027126;28;20471;-84
2021/07/16 05:02:39;;;;;;;19.63;8.83;;;19.90;99.90;;;;;;5029596;28;20445;-84
2021/07/16 05:05:07;;;;;;;34.60;9.70;;;19.90;99.90;;;;;;5034954;28;20466;-84
2021/07/16 05:07:34;;;;;;;19.73;8.23;;;20.10;99.90;;;;;;5030039;28;20933;-85
2021/07/16 05:10:04;;;;;;;29.57;9.73;;;20.20;99.90;;;;;;5026745;28;20452;-84
2021/07/16 05:12:31;;;;;;;25.30;8.00;;;20.20;99.90;;;;;;5018999;28;20455;-84
2021/07/16 05:14:58;;;;;;;27.00;10.40;;;20.40;99.90;;;;;;5023878;28;20492;-84
2021/07/16 05:17:25;;;;;;;19.93;8.57;;;20.60;99.90;;;;;;5034527;28;20456;-85
2021/07/16 05:19:52;;;;;;;35.27;9.63;;;20.80;99.90;;;;;;5022434;28;20528;-85
2021/07/16 05:22:19;;;;;;;21.33;8.37;;;20.90;99.90;;;;;;5032098;28;20448;-84
2021/07/16 05:24:46;;;;;;;19.90;7.57;;;21.10;99.90;;;;;;5026622;28;20456;-85
2021/07/16 05:27:15;;;;;;;23.23;7.80;;;21.20;99.90;;;;;;5027182;28;20442;-84
2021/07/16 05:29:42;;;;;;;26.37;9.50;;;21.40;99.90;;;;;;5019722;28;20451;-84
2021/07/16 05:32:09;;;;;;;25.93;8.50;;;21.70;99.90;;;;;;5020978;28;20954;-84
2021/07/16 05:34:36;;;;;;;30.43;9.50;;;21.80;99.90;;;;;;5034659;28;20481;-85
2021/07/16 05:37:04;;;;;;;19.37;10.07;;;21.90;99.90;;;;;;5024097;28;20450;-85
2021/07/16 05:39:31;;;;;;;21.80;8.30;;;22.00;99.90;;;;;;5035381;28;20445;-84
2021/07/16 05:41:59;;;;;;;30.53;10.40;;;21.90;99.90;;;;;;5033110;28;20517;-85
2021/07/16 05:44:27;;;;;;;20.93;7.80;;;22.00;99.90;;;;;;5030668;28;20503;-84
2021/07/16 05:46:54;;;;;;;29.80;8.63;;;22.10;99.90;;;;;;5027719;28;20462;-85
2021/07/16 05:49:21;;;;;;;24.80;6.40;;;22.10;99.90;;;;;;5039215;28;20454;-85
2021/07/16 05:51:48;;;;;;;20.70;9.90;;;22.20;99.90;;;;;;5029190;28;20448;-85
2021/07/16 05:54:15;;;;;;;30.60;8.87;;;22.30;99.90;;;;;;5020131;28;20849;-85
2021/07/16 05:56:44;;;;;;;25.90;8.60;;;22.30;99.90;;;;;;5020984;28;20441;-84
2021/07/16 05:59:12;;;;;;;28.67;9.53;;;22.20;99.90;;;;;;5028909;28;21008;-85
2021/07/16 06:01:40;;;;;;;28.17;9.57;;;22.30;99.90;;;;;;5022616;28;20452;-84
2021/07/16 06:04:10;;;;;;;21.30;8.50;;;22.30;99.90;;;;;;5034181;28;20442;-84
2021/07/16 06:06:38;;;;;;;26.23;10.43;;;22.20;99.90;;;;;;5038603;28;20442;-84
2021/07/16 06:09:07;;;;;;;24.37;11.30;;;21.90;99.90;;;;;;5006079;28;20463;-84
2021/07/16 06:11:34;;;;;;;27.13;10.27;;;21.80;99.90;;;;;;5020531;28;20440;-84
2021/07/16 06:14:01;;;;;;;24.43;11.90;;;21.80;99.90;;;;;;5031421;28;20471;-87
2021/07/16 06:16:29;;;;;;;22.50;11.10;;;21.80;99.90;;;;;;5050988;28;20453;-88
2021/07/16 06:18:57;;;;;;;20.77;8.50;;;21.90;99.90;;;;;;5053259;28;20435;-87
2021/07/16 06:21:24;;;;;;;21.30;10.30;;;22.10;99.90;;;;;;5040496;28;20498;-88
2021/07/16 06:23:52;;;;;;;22.37;11.37;;;22.00;99.90;;;;;;5043416;28;20442;-88
2021/07/16 06:26:19;;;;;;;35.40;12.43;;;22.20;99.90;;;;;;5049988;28;20467;-87
2021/07/16 06:28:46;;;;;;;23.73;7.77;;;22.30;99.90;;;;;;5046096;28;20440;-88
2021/07/16 06:31:16;;;;;;;22.23;8.20;;;22.50;99.90;;;;;;5046697;28;20541;-86
2021/07/16 06:33:44;;;;;;;20.83;7.93;;;22.60;99.90;;;;;;5049253;28;20441;-88
2021/07/16 06:36:12;;;;;;;23.70;8.67;;;22.70;99.90;;;;;;5049360;28;20487;-88
2021/07/16 06:38:41;;;;;;;19.60;7.10;;;22.60;99.90;;;;;;5047670;28;20431;-88
2021/07/16 06:41:09;;;;;;;22.30;9.30;;;22.80;99.90;;;;;;5041735;28;20456;-86
2021/07/16 06:43:37;;;;;;;22.80;8.23;;;23.20;99.90;;;;;;5048931;28;20443;-87
2021/07/16 06:46:04;;;;;;;20.30;7.00;;;23.70;99.90;;;;;;5041467;28;20476;-89
2021/07/16 06:48:31;;;;;;;26.90;8.37;;;24.30;99.90;;;;;;5043703;28;20451;-84
2021/07/16 06:50:58;;;;;;;19.47;7.90;;;24.90;99.90;;;;;;5037112;28;21097;-88
2021/07/16 06:53:27;;;;;;;20.37;7.50;;;26.10;99.90;;;;;;5037054;28;20468;-87
2021/07/16 06:55:54;;;;;;;20.17;7.00;;;27.20;98.10;;;;;;5036599;28;20546;-87
2021/07/16 06:58:22;;;;;;;18.63;6.70;;;27.90;96.00;;;;;;5040406;28;20486;-85
2021/07/16 07:00:50;;;;;;;27.80;9.63;;;28.20;94.20;;;;;;5043763;28;20457;-85
2021/07/16 07:03:17;;;;;;;21.80;7.63;;;27.70;94.30;;;;;;5051054;28;20440;-84
2021/07/16 07:05:45;;;;;;;20.07;6.37;;;27.60;94.60;;;;;;5027094;28;20483;-84
2021/07/16 07:08:12;;;;;;;21.33;7.67;;;27.30;94.60;;;;;;5041832;28;20917;-84
2021/07/16 07:10:40;;;;;;;24.90;8.10;;;26.60;96.10;;;;;;5025905;28;20447;-84
2021/07/16 07:13:08;;;;;;;18.80;6.57;;;26.90;96.30;;;;;;5026976;28;20455;-85
2021/07/16 07:15:36;;;;;;;26.00;7.73;;;27.20;96.30;;;;;;5035735;28;20483;-84
2021/07/16 07:18:04;;;;;;;20.53;6.20;;;28.10;94.50;;;;;;5043112;28;20436;-84
2021/07/16 07:20:32;;;;;;;22.33;7.17;;;28.60;93.70;;;;;;5031817;28;20455;-86
2021/07/16 07:23:00;;;;;;;21.90;8.90;;;29.40;92.80;;;;;;5040483;28;20483;-84
2021/07/16 07:25:27;;;;;;;20.00;6.80;;;29.60;91.90;;;;;;5020118;28;20471;-84
2021/07/16 07:27:55;;;;;;;19.87;6.60;;;28.90;92.10;;;;;;5027457;28;20448;-84
2021/07/16 07:30:23;;;;;;;26.97;7.67;;;27.80;93.40;;;;;;5027270;28;20541;-84
2021/07/16 07:32:50;;;;;;;26.50;8.50;;;27.00;95.30;;;;;;5025884;28;20451;-85
2021/07/16 07:35:18;;;;;;;17.13;7.20;;;26.30;96.80;;;;;;5037235;28;21279;-86
2021/07/16 07:37:45;;;;;;;21.70;7.10;;;25.60;98.10;;;;;;5035944;28;20443;-84
2021/07/16 07:40:15;;;;;;;28.63;8.00;;;24.90;99.90;;;;;;5023229;28;20461;-86
2021/07/16 07:42:44;;;;;;;35.63;10.00;;;24.40;99.90;;;;;;5025025;28;20453;-85
2021/07/16 07:45:14;;;;;;;25.63;11.93;;;24.00;99.90;;;;;;5036204;28;20464;-85
2021/07/16 07:47:43;;;;;;;24.53;8.07;;;23.70;99.90;;;;;;5036722;28;20439;-85
2021/07/16 07:50:13;;;;;;;25.67;10.43;;;23.50;99.90;;;;;;5036646;28;20454;-85
2021/07/16 07:52:40;;;;;;;19.37;8.30;;;23.30;99.90;;;;;;5031595;28;20456;-86
2021/07/16 07:55:09;;;;;;;27.30;7.43;;;23.20;99.90;;;;;;5031253;28;20490;-84
2021/07/16 07:57:36;;;;;;;24.43;8.17;;;23.20;99.90;;;;;;5028410;28;20519;-85
2021/07/16 08:00:05;;;;;;;18.73;6.67;;;23.10;99.90;;;;;;5027819;28;20443;-87
2021/07/16 08:02:33;;;;;;;24.07;7.00;;;23.20;99.90;;;;;;5045956;28;20455;-85
2021/07/16 08:05:01;;;;;;;21.57;7.33;;;23.30;99.90;;;;;;5031549;28;20472;-86
2021/07/16 08:07:28;;;;;;;28.43;8.33;;;23.30;99.90;;;;;;5035908;28;20441;-84
2021/07/16 08:09:55;;;;;;;20.40;6.27;;;23.50;99.90;;;;;;5030132;28;20472;-85
2021/07/16 08:12:22;;;;;;;25.53;9.10;;;23.50;99.90;;;;;;5021804;28;20459;-86
2021/07/16 08:14:50;;;;;;;29.83;7.90;;;23.50;99.90;;;;;;5028199;28;20509;-83
2021/07/16 08:17:17;;;;;;;24.93;7.00;;;23.50;99.90;;;;;;5028431;28;20486;-84
2021/07/16 08:19:46;;;;;;;20.97;7.87;;;23.30;99.90;;;;;;5036078;28;20481;-86
2021/07/16 08:22:13;;;;;;;22.07;8.33;;;23.60;99.90;;;;;;5035618;28;20469;-85
2021/07/16 08:24:40;;;;;;;21.13;8.37;;;24.10;99.90;;;;;;5033121;28;20474;-84
2021/07/16 08:27:08;;;;;;;26.87;8.10;;;25.00;99.90;;;;;;5039649;28;20450;-84
2021/07/16 08:29:35;;;;;;;26.67;10.97;;;25.90;99.90;;;;;;5031045;28;20493;-86
2021/07/16 08:32:02;;;;;;;23.00;8.67;;;26.70;98.80;;;;;;5036322;28;20450;-85
2021/07/16 08:34:30;;;;;;;24.97;6.90;;;27.20;97.90;;;;;;5047796;28;20545;-86
2021/07/16 08:36:59;;;;;;;30.77;8.47;;;27.40;96.30;;;;;;5040966;28;20447;-86
2021/07/16 08:39:26;;;;;;;25.03;8.17;;;27.60;96.00;;;;;;5030715;28;20867;-85
2021/07/16 08:41:53;;;;;;;17.33;7.93;;;28.80;94.80;;;;;;5035383;28;20475;-85
2021/07/16 08:44:21;;;;;;;14.13;6.30;;;29.50;92.80;;;;;;5029305;28;20473;-86
2021/07/16 08:46:49;;;;;;;17.90;6.37;;;29.50;91.50;;;;;;5032956;28;20983;-85
2021/07/16 08:49:26;;;;;;;23.50;8.40;;;30.00;90.80;;;;;;5041916;28;20455;-86
2021/07/16 08:51:53;;;;;;;19.17;5.20;;;30.70;90.80;;;;;;5028794;28;20893;-85
2021/07/16 08:54:22;;;;;;;19.77;7.50;;;31.50;88.40;;;;;;5051879;28;20454;-86
2021/07/16 08:56:49;;;;;;;20.47;6.80;;;32.30;84.80;;;;;;5036886;28;20502;-85
2021/07/16 08:59:17;;;;;;;23.40;8.23;;;31.80;83.70;;;;;;5026659;28;20457;-85
2021/07/16 09:01:46;;;;;;;14.53;6.43;;;31.20;85.80;;;;;;5038753;28;20512;-85
2021/07/16 09:04:13;;;;;;;22.43;8.50;;;30.80;87.10;;;;;;5039924;28;20455;-86
2021/07/16 09:06:45;;;;;;;19.03;6.17;;;30.90;86.70;;;;;;5044018;28;20447;-85
2021/07/16 09:09:13;;;;;;;23.50;8.77;;;30.40;87.00;;;;;;5040226;28;20452;-86
2021/07/16 09:11:42;;;;;;;18.90;6.57;;;29.60;89.70;;;;;;5046145;28;20432;-84
2021/07/16 09:14:17;;;;;;;21.37;6.70;;;29.10;90.60;;;;;;5033455;28;20479;-85
2021/07/16 09:16:54;;;;;;;28.47;7.40;;;28.80;90.90;;;;;;5037576;28;20554;-85
2021/07/16 09:19:31;;;;;;;31.07;8.97;;;28.80;91.80;;;;;;5034174;28;20518;-85
2021/07/16 09:22:10;;;;;;;20.93;8.10;;;29.10;91.30;;;;;;5033550;28;20459;-84
2021/07/16 09:24:40;;;;;;;29.90;9.47;;;28.90;91.60;;;;;;5025073;28;20439;-84
2021/07/16 09:27:31;;;;;;;23.83;6.73;;;29.00;91.70;;;;;;5032007;28;20597;-84
2021/07/16 09:30:11;;;;;;;21.30;8.00;;;29.10;91.20;;;;;;5034936;28;20503;-86
2021/07/16 09:32:40;;;;;;;21.30;10.00;;;29.20;91.20;;;;;;5028888;28;20943;-87
2021/07/16 09:35:08;;;;;;;21.77;7.43;;;29.20;91.20;;;;;;5028250;28;20541;-84
2021/07/16 09:37:49;;;;;;;34.77;8.70;;;29.80;90.80;;;;;;5023854;28;20459;-86
2021/07/16 09:40:21;;;;;;;23.13;8.43;;;30.10;89.90;;;;;;5032589;28;20448;-85
2021/07/16 09:42:57;;;;;;;22.67;7.70;;;30.20;90.20;;;;;;5027395;28;20452;-85
2021/07/16 09:45:24;;;;;;;18.57;6.60;;;30.20;89.30;;;;;;5018239;28;20452;-85
2021/07/16 09:47:51;;;;;;;28.00;8.10;;;30.50;89.80;;;;;;5031644;28;20451;-86
2021/07/16 09:50:21;;;;;;;24.13;8.80;;;31.10;87.30;;;;;;5022979;28;20443;-85
2021/07/16 09:52:51;;;;;;;24.23;8.30;;;30.90;87.40;;;;;;5032154;28;20447;-85
2021/07/16 09:55:20;;;;;;;21.13;7.73;;;30.70;87.80;;;;;;5038081;28;20470;-85
2021/07/16 09:57:52;;;;;;;29.70;9.10;;;30.70;87.30;;;;;;5039585;28;20523;-85
2021/07/16 10:00:21;;;;;;;24.37;8.83;;;30.60;87.20;;;;;;5025828;28;20487;-85
2021/07/16 10:02:50;;;;;;;26.33;8.40;;;30.30;88.40;;;;;;5038667;28;20511;-85
2021/07/16 10:05:18;;;;;;;23.63;8.60;;;30.00;89.50;;;;;;5029535;28;20476;-87
2021/07/16 10:07:46;;;;;;;35.20;9.07;;;29.60;90.10;;;;;;5025427;28;20456;-86
2021/07/16 10:10:15;;;;;;;22.13;7.83;;;29.50;90.00;;;;;;5034308;28;20466;-87
2021/07/16 10:12:44;;;;;;;25.13;12.60;;;29.60;90.10;;;;;;5033177;28;20482;-85
2021/07/16 10:15:15;;;;;;;27.73;8.27;;;29.00;91.20;;;;;;5033073;28;20885;-86
2021/07/16 10:17:42;;;;;;;23.57;10.30;;;28.60;91.50;;;;;;5033287;28;20436;-86
2021/07/16 10:20:11;;;;;;;23.73;7.57;;;28.60;92.10;;;;;;5036576;28;20451;-85
2021/07/16 10:22:39;;;;;;;19.30;7.97;;;28.40;91.60;;;;;;5026165;28;20440;-85
2021/07/16 10:25:09;;;;;;;18.93;8.57;;;28.50;92.10;;;;;;5033553;28;20475;-85
2021/07/16 10:27:36;;;;;;;18.60;7.97;;;28.30;92.10;;;;;;5021516;28;20799;-86
2021/07/16 10:30:08;;;;;;;18.87;7.77;;;28.10;91.90;;;;;;5025631;28;20462;-85
2021/07/16 10:32:44;;;;;;;22.10;10.87;;;28.20;92.50;;;;;;5022455;28;20452;-85
2021/07/16 10:35:20;;;;;;;23.03;8.93;;;28.00;92.30;;;;;;5029586;28;20474;-85
2021/07/16 10:37:49;;;;;;;20.70;8.60;;;28.10;92.70;;;;;;5029622;28;20462;-85
2021/07/16 10:40:43;;;;;;;27.23;11.77;;;27.90;92.80;;;;;;5034067;28;20554;-85
2021/07/16 10:43:40;;;;;;;25.17;8.50;;;27.80;93.10;;;;;;5029076;28;20474;-84
2021/07/16 10:46:32;;;;;;;25.03;8.87;;;27.80;93.40;;;;;;5025363;28;20480;-85
2021/07/16 10:49:01;;;;;;;22.40;10.47;;;27.80;93.10;;;;;;5030436;28;20470;-83
2021/07/16 10:51:30;;;;;;;27.67;9.33;;;27.60;93.60;;;;;;5030609;28;20463;-85
2021/07/16 10:53:59;;;;;;;25.67;9.20;;;27.50;93.80;;;;;;5021641;28;20448;-84
2021/07/16 10:56:43;;;;;;;22.63;9.00;;;27.50;93.70;;;;;;5025956;28;20557;-85
2021/07/16 10:59:31;;;;;;;23.53;10.80;;;27.30;93.90;;;;;;5037333;28;20499;-84
2021/07/16 11:01:59;;;;;;;26.17;9.50;;;27.10;94.10;;;;;;5038974;28;20450;-85
2021/07/16 11:04:35;;;;;;;21.97;9.63;;;27.70;93.90;;;;;;5039067;28;20469;-84
